地図

経路データ

SID SEASON NUMBER BASIN SUBBASIN NAME ISO_TIME NATURE LAT LON WMO_WIND WMO_PRES WMO_AGENCY TRACK_TYPE DIST2LAND LANDFALL IFLAG USA_AGENCY USA_ATCF_ID USA_LAT USA_LON USA_RECORD USA_STATUS USA_WIND USA_PRES USA_SSHS USA_R34_NE USA_R34_SE USA_R34_SW USA_R34_NW USA_R50_NE USA_R50_SE USA_R50_SW USA_R50_NW USA_R64_NE USA_R64_SE USA_R64_SW USA_R64_NW USA_POCI USA_ROCI USA_RMW USA_EYE TOKYO_LAT TOKYO_LON TOKYO_GRADE TOKYO_WIND TOKYO_PRES TOKYO_R50_DIR TOKYO_R50_LONG TOKYO_R50_SHORT TOKYO_R30_DIR TOKYO_R30_LONG TOKYO_R30_SHORT TOKYO_LAND CMA_LAT CMA_LON CMA_CAT CMA_WIND CMA_PRES HKO_LAT HKO_LON HKO_CAT HKO_WIND HKO_PRES NEWDELHI_LAT NEWDELHI_LON NEWDELHI_GRADE NEWDELHI_WIND NEWDELHI_PRES NEWDELHI_CI NEWDELHI_DP NEWDELHI_POCI REUNION_LAT REUNION_LON REUNION_TYPE REUNION_WIND REUNION_PRES REUNION_TNUM REUNION_CI REUNION_RMW REUNION_R34_NE REUNION_R34_SE REUNION_R34_SW REUNION_R34_NW REUNION_R50_NE REUNION_R50_SE REUNION_R50_SW REUNION_R50_NW REUNION_R64_NE REUNION_R64_SE REUNION_R64_SW REUNION_R64_NW BOM_LAT BOM_LON BOM_TYPE BOM_WIND BOM_PRES BOM_TNUM BOM_CI BOM_RMW BOM_R34_NE BOM_R34_SE BOM_R34_SW BOM_R34_NW BOM_R50_NE BOM_R50_SE BOM_R50_SW BOM_R50_NW BOM_R64_NE BOM_R64_SE BOM_R64_SW BOM_R64_NW BOM_ROCI BOM_POCI BOM_EYE BOM_POS_METHOD BOM_PRES_METHOD NADI_LAT NADI_LON NADI_CAT NADI_WIND NADI_PRES WELLINGTON_LAT WELLINGTON_LON WELLINGTON_WIND WELLINGTON_PRES DS824_LAT DS824_LON DS824_STAGE DS824_WIND DS824_PRES TD9636_LAT TD9636_LON TD9636_STAGE TD9636_WIND TD9636_PRES TD9635_LAT TD9635_LON TD9635_WIND TD9635_PRES TD9635_ROCI NEUMANN_LAT NEUMANN_LON NEUMANN_CLASS NEUMANN_WIND NEUMANN_PRES MLC_LAT MLC_LON MLC_CLASS MLC_WIND MLC_PRES USA_GUST BOM_GUST BOM_GUST_PER REUNION_GUST REUNION_GUST_PER USA_SEAHGT USA_SEARAD_NE USA_SEARAD_SE USA_SEARAD_SW USA_SEARAD_NW STORM_SPEED STORM_DIR
1899273N18127 1899 36 WP MM NOT_NAMED 1899-09-30 04:00:00 NR 17.5000 127.100 main 491 472 __________O___ -1 17.5000 127.100 7 6 295
1899273N18127 1899 36 WP MM NOT_NAMED 1899-09-30 06:00:00 NR 17.5781 126.922 main 472 452 __________P___ -1 17.5781 126.922 7 6 295
1899273N18127 1899 36 WP MM NOT_NAMED 1899-09-30 09:00:00 NR 17.6971 126.653 main 452 423 __________P___ -1 17.6971 126.653 7 6 295
1899273N18127 1899 36 WP MM NOT_NAMED 1899-09-30 12:00:00 NR 17.8211 126.379 main 423 395 __________P___ -1 17.8211 126.379 7 6 296
1899273N18127 1899 36 WP MM NOT_NAMED 1899-09-30 15:00:00 NR 17.9535 126.097 main 397 387 __________P___ -1 17.9535 126.097 7 6 296
1899273N18127 1899 36 WP MM NOT_NAMED 1899-09-30 16:00:00 NR 18.0000 126.000 main 387 370 __________O___ -1 18.0000 126.000 7 6 297
1899273N18127 1899 36 WP MM NOT_NAMED 1899-09-30 18:00:00 NR 18.0969 125.803 main 370 338 __________P___ -1 18.0969 125.803 7 6 298
1899273N18127 1899 36 WP MM NOT_NAMED 1899-09-30 21:00:00 NR 18.2486 125.501 main 338 306 __________P___ -1 18.2486 125.501 7 7 298
1899273N18127 1899 36 WP MM NOT_NAMED 1899-10-01 00:00:00 NR 18.4024 125.198 main 306 274 __________P___ -1 18.4024 125.198 7 6 298
1899273N18127 1899 36 WP MM NOT_NAMED 1899-10-01 03:00:00 NR 18.5521 124.898 main 275 264 __________P___ -1 18.5521 124.898 7 6 298
1899273N18127 1899 36 WP MM NOT_NAMED 1899-10-01 04:00:00 NR 18.6000 124.800 main 264 244 __________O___ -1 18.6000 124.800 3 6 297
1899273N18127 1899 36 WP MM NOT_NAMED 1899-10-01 06:00:00 NR 18.6889 124.613 main 244 215 __________P___ -1 18.6889 124.613 3 6 296
1899273N18127 1899 36 WP MM NOT_NAMED 1899-10-01 09:00:00 NR 18.8160 124.340 main 215 197 __________P___ -1 18.8160 124.340 3 6 296
1899273N18127 1899 36 WP MM NOT_NAMED 1899-10-01 12:00:00 NR 18.9385 124.069 main 197 171 __________P___ -1 18.9385 124.069 3 6 295
1899273N18127 1899 36 WP MM NOT_NAMED 1899-10-01 15:00:00 NR 19.0595 123.794 main 176 166 __________P___ -1 19.0595 123.794 3 6 295
1899273N18127 1899 36 WP MM NOT_NAMED 1899-10-01 16:00:00 NR 19.1000 123.700 main 166 154 __________O___ -1 19.1000 123.700 4 6 296
1899273N18127 1899 36 WP MM NOT_NAMED 1899-10-01 18:00:00 NR 19.1937 123.508 main 154 138 __________P___ -1 19.1937 123.508 4 6 297
1899273N18127 1899 36 WP MM NOT_NAMED 1899-10-01 21:00:00 NR 19.3346 123.215 main 138 133 __________P___ -1 19.3346 123.215 4 6 296
1899273N18127 1899 36 WP MM NOT_NAMED 1899-10-02 00:00:00 NR 19.4647 122.913 main 138 130 __________P___ -1 19.4647 122.913 4 6 292
1899273N18127 1899 36 WP MM NOT_NAMED 1899-10-02 03:00:00 NR 19.5717 122.605 main 137 135 __________P___ -1 19.5717 122.605 4 6 289
1899273N18127 1899 36 WP MM NOT_NAMED 1899-10-02 04:00:00 NR 19.6000 122.500 main 135 134 __________O___ -1 19.6000 122.500 4 6 284
1899273N18127 1899 36 WP MM NOT_NAMED 1899-10-02 06:00:00 NR 19.6472 122.294 main 134 145 __________P___ -1 19.6472 122.294 4 6 281
1899273N18127 1899 36 WP MM NOT_NAMED 1899-10-02 09:00:00 NR 19.6931 121.979 main 145 137 __________P___ -1 19.6931 121.979 4 6 276
1899273N18127 1899 36 WP MM NOT_NAMED 1899-10-02 12:00:00 NR 19.7118 121.655 main 137 130 __________P___ -1 19.7118 121.655 4 6 271
1899273N18127 1899 36 WP MM NOT_NAMED 1899-10-02 15:00:00 NR 19.7065 121.316 main 130 127 __________P___ -1 19.7065 121.316 4 6 268
1899273N18127 1899 36 WP MM NOT_NAMED 1899-10-02 16:00:00 NR 19.7000 121.200 main 127 123 __________O___ -1 19.7000 121.200 4 7 269
1899273N18127 1899 36 WP MM NOT_NAMED 1899-10-02 18:00:00 NR 19.7024 120.940 main 123 123 __________P___ -1 19.7024 120.940 4 7 269
1899273N18127 1899 36 WP MM NOT_NAMED 1899-10-02 21:00:00 NR 19.6873 120.538 main 127 127 __________P___ -1 19.6873 120.538 4 7 265
1899273N18127 1899 36 WP MM NOT_NAMED 1899-10-03 00:00:00 NR 19.6387 120.148 main 133 133 __________P___ -1 19.6387 120.148 4 7 258
1899273N18127 1899 36 WP MM NOT_NAMED 1899-10-03 03:00:00 NR 19.5439 119.801 main 145 145 __________P___ -1 19.5439 119.801 4 7 252
1899273N18127 1899 36 WP MM NOT_NAMED 1899-10-03 04:00:00 NR 19.5000 119.700 main 153 153 __________O___ -1 19.5000 119.700 4 6 239
1899273N18127 1899 36 WP MM NOT_NAMED 1899-10-03 06:00:00 NR 19.3922 119.538 main 160 153 __________P___ -1 19.3922 119.538 4 6 227
1899273N18127 1899 36 WP MM NOT_NAMED 1899-10-03 09:00:00 NR 19.1868 119.345 main 163 157 __________P___ -1 19.1868 119.345 4 6 216
1899273N18127 1899 36 WP MM NOT_NAMED 1899-10-03 12:00:00 NR 18.9455 119.190 main 157 157 __________P___ -1 18.9455 119.190 4 6 209
1899273N18127 1899 36 WP MM NOT_NAMED 1899-10-03 15:00:00 NR 18.6869 119.049 main 171 167 __________P___ -1 18.6869 119.049 4 6 208
1899273N18127 1899 36 WP MM NOT_NAMED 1899-10-03 16:00:00 NR 18.6000 119.000 main 167 164 __________O___ -1 18.6000 119.000 4 6 210
1899273N18127 1899 36 WP MM NOT_NAMED 1899-10-03 18:00:00 NR 18.4311 118.891 main 172 172 __________P___ -1 18.4311 118.891 4 6 211
1899273N18127 1899 36 WP MM NOT_NAMED 1899-10-03 21:00:00 NR 18.1713 118.728 main 182 178 __________P___ -1 18.1713 118.728 4 6 211
1899273N18127 1899 36 WP MM NOT_NAMED 1899-10-04 00:00:00 NR 17.9149 118.557 main 183 192 __________P___ -1 17.9149 118.557 4 6 215
1899273N18127 1899 36 WP MM NOT_NAMED 1899-10-04 03:00:00 NR 17.6744 118.368 main 201 201 __________P___ -1 17.6744 118.368 4 6 218
1899273N18127 1899 36 WP MM NOT_NAMED 1899-10-04 04:00:00 NR 17.6000 118.300 main 212 212 __________O___ -1 17.6000 118.300 4 6 223
1899273N18127 1899 36 WP MM NOT_NAMED 1899-10-04 06:00:00 NR 17.4635 118.156 main 216 218 __________P___ -1 17.4635 118.156 4 6 228
1899273N18127 1899 36 WP MM NOT_NAMED 1899-10-04 09:00:00 NR 17.2777 117.921 main 231 226 __________P___ -1 17.2777 117.921 4 6 233
1899273N18127 1899 36 WP MM NOT_NAMED 1899-10-04 12:00:00 NR 17.1090 117.666 main 240 240 __________P___ -1 17.1090 117.666 4 6 237
1899273N18127 1899 36 WP MM NOT_NAMED 1899-10-04 15:00:00 NR 16.9512 117.394 main 267 264 __________P___ -1 16.9512 117.394 4 6 239
1899273N18127 1899 36 WP MM NOT_NAMED 1899-10-04 16:00:00 NR 16.9000 117.300 main 274 274 __________O___ -1 16.9000 117.300 4 7 239
1899273N18127 1899 36 WP MM NOT_NAMED 1899-10-04 18:00:00 NR 16.7865 117.101 main 291 291 __________P___ -1 16.7865 117.101 4 7 240
1899273N18127 1899 36 WP MM NOT_NAMED 1899-10-04 21:00:00 NR 16.6224 116.789 main 316 316 __________P___ -1 16.6224 116.789 4 7 242
1899273N18127 1899 36 WP MM NOT_NAMED 1899-10-05 00:00:00 NR 16.4710 116.479 main 346 346 __________P___ -1 16.4710 116.479 4 6 244
1899273N18127 1899 36 WP MM NOT_NAMED 1899-10-05 03:00:00 NR 16.3388 116.189 main 375 375 __________P___ -1 16.3388 116.189 4 6 245
1899273N18127 1899 36 WP MM NOT_NAMED 1899-10-05 04:00:00 NR 16.3000 116.100 main 386 386 __________O___ -1 16.3000 116.100 4 5 245
1899273N18127 1899 36 WP MM NOT_NAMED 1899-10-05 06:00:00 NR 16.2275 115.941 main 406 406 __________P___ -1 16.2275 115.941 4 5 246
1899273N18127 1899 36 WP MM NOT_NAMED 1899-10-05 09:00:00 NR 16.1376 115.728 main 427 427 __________P___ -1 16.1376 115.728 4 4 248
1899273N18127 1899 36 WP MM NOT_NAMED 1899-10-05 12:00:00 NR 16.0677 115.537 main 449 449 __________P___ -1 16.0677 115.537 4 4 251
1899273N18127 1899 36 WP MM NOT_NAMED 1899-10-05 15:00:00 NR 16.0146 115.358 main 459 470 __________P___ -1 16.0146 115.358 4 4 253
1899273N18127 1899 36 WP MM NOT_NAMED 1899-10-05 16:00:00 NR 16.0000 115.300 main 470 470 __________O___ -1 16.0000 115.300 4 4 256
1899273N18127 1899 36 WP MM NOT_NAMED 1899-10-05 18:00:00 NR 15.9719 115.175 main 481 481 __________P___ -1 15.9719 115.175 4 4 259
1899273N18127 1899 36 WP MM NOT_NAMED 1899-10-05 21:00:00 NR 15.9423 114.994 main 502 502 __________P___ -1 15.9423 114.994 4 3 262
1899273N18127 1899 36 WP MM NOT_NAMED 1899-10-06 00:00:00 NR 15.9224 114.820 main 524 524 __________P___ -1 15.9224 114.820 4 3 264
1899273N18127 1899 36 WP MM NOT_NAMED 1899-10-06 03:00:00 NR 15.9059 114.654 main 534 542 __________P___ -1 15.9059 114.654 4 3 264
1899273N18127 1899 36 WP MM NOT_NAMED 1899-10-06 04:00:00 NR 15.9000 114.600 main 542 534 __________O___ -1 15.9000 114.600 4 3 262
1899273N18127 1899 36 WP MM NOT_NAMED 1899-10-06 06:00:00 NR 15.8833 114.494 main 534 517 __________P___ -1 15.8833 114.494 4 3 260
1899273N18127 1899 36 WP MM NOT_NAMED 1899-10-06 09:00:00 NR 15.8583 114.342 main 517 516 __________P___ -1 15.8583 114.342 4 3 260
1899273N18127 1899 36 WP MM NOT_NAMED 1899-10-06 12:00:00 NR 15.8333 114.195 main 516 500 __________P___ -1 15.8333 114.195 4 3 260
1899273N18127 1899 36 WP MM NOT_NAMED 1899-10-06 15:00:00 NR 15.8083 114.049 main 500 500 __________P___ -1 15.8083 114.049 4 3 260
1899273N18127 1899 36 WP MM NOT_NAMED 1899-10-06 16:00:00 NR 15.8000 114.000 main 500 492 __________O___ -1 15.8000 114.000 4 3 259
1899273N18127 1899 36 WP MM NOT_NAMED 1899-10-06 18:00:00 NR 15.7807 113.900 main 492 477 __________P___ -1 15.7807 113.900 4 3 259
1899273N18127 1899 36 WP MM NOT_NAMED 1899-10-06 21:00:00 NR 15.7517 113.750 main 485 477 __________P___ -1 15.7517 113.750 4 3 259
1899273N18127 1899 36 WP MM NOT_NAMED 1899-10-07 00:00:00 NR 15.7254 113.600 main 477 470 __________P___ -1 15.7254 113.600 4 3 261
1899273N18127 1899 36 WP MM NOT_NAMED 1899-10-07 03:00:00 NR 15.7050 113.450 main 470 462 __________P___ -1 15.7050 113.450 4 3 262
1899273N18127 1899 36 WP MM NOT_NAMED 1899-10-07 04:00:00 NR 15.7000 113.400 main 462 455 __________O___ -1 15.7000 113.400 4 3 266
1899273N18127 1899 36 WP MM NOT_NAMED 1899-10-07 06:00:00 NR 15.6943 113.300 main 455 448 __________P___ -1 15.6943 113.300 4 3 268
1899273N18127 1899 36 WP MM NOT_NAMED 1899-10-07 09:00:00 NR 15.6920 113.150 main 448 433 __________P___ -1 15.6920 113.150 4 3 270
1899273N18127 1899 36 WP MM NOT_NAMED 1899-10-07 12:00:00 NR 15.6945 113.000 main 433 422 __________P___ -1 15.6945 113.000 4 3 271
1899273N18127 1899 36 WP MM NOT_NAMED 1899-10-07 15:00:00 NR 15.6988 112.850 main 422 412 __________P___ -1 15.6988 112.850 4 3 272
1899273N18127 1899 36 WP MM NOT_NAMED 1899-10-07 16:00:00 NR 15.7000 112.800 main 412 402 __________O___ -1 15.7000 112.800 4 3 269
1899273N18127 1899 36 WP MM NOT_NAMED 1899-10-07 18:00:00 NR 15.6974 112.695 main 402 381 __________P___ -1 15.6974 112.695 4 3 269
1899273N18127 1899 36 WP MM NOT_NAMED 1899-10-07 21:00:00 NR 15.6934 112.537 main 381 371 __________P___ -1 15.6934 112.537 4 3 269
1899273N18127 1899 36 WP MM NOT_NAMED 1899-10-08 00:00:00 NR 15.6921 112.384 main 371 351 __________P___ -1 15.6921 112.384 4 3 271
1899273N18127 1899 36 WP MM NOT_NAMED 1899-10-08 03:00:00 NR 15.6967 112.243 main 351 351 __________P___ -1 15.6967 112.243 4 3 273
1899273N18127 1899 36 WP MM NOT_NAMED 1899-10-08 04:00:00 NR 15.7000 112.200 main 351 340 __________O___ -1 15.7000 112.200 4 2 276
1899273N18127 1899 36 WP MM NOT_NAMED 1899-10-08 06:00:00 NR 15.7083 112.122 main 340 330 __________P___ -1 15.7083 112.122 4 2 279
1899273N18127 1899 36 WP MM NOT_NAMED 1899-10-08 09:00:00 NR 15.7270 112.017 main 330 320 __________P___ -1 15.7270 112.017 4 2 283
1899273N18127 1899 36 WP MM NOT_NAMED 1899-10-08 12:00:00 NR 15.7533 111.922 main 324 314 __________P___ -1 15.7533 111.922 4 2 288
1899273N18127 1899 36 WP MM NOT_NAMED 1899-10-08 15:00:00 NR 15.7871 111.831 main 314 314 __________P___ -1 15.7871 111.831 4 2 292
1899273N18127 1899 36 WP MM NOT_NAMED 1899-10-08 16:00:00 NR 15.8000 111.800 main 314 304 __________O___ -1 15.8000 111.800 4 2 294
1899273N18127 1899 36 WP MM NOT_NAMED 1899-10-08 18:00:00 NR 15.8302 111.731 main 304 299 __________P___ -1 15.8302 111.731 4 2 296
1899273N18127 1899 36 WP MM NOT_NAMED 1899-10-08 21:00:00 NR 15.8820 111.627 main 299 289 __________P___ -1 15.8820 111.627 4 2 298
1899273N18127 1899 36 WP MM NOT_NAMED 1899-10-09 00:00:00 NR 15.9358 111.525 main 289 282 __________P___ -1 15.9358 111.525 4 2 299
1899273N18127 1899 36 WP MM NOT_NAMED 1899-10-09 03:00:00 NR 15.9855 111.430 main 282 282 __________P___ -1 15.9855 111.430 4 2 298
1899273N18127 1899 36 WP MM NOT_NAMED 1899-10-09 04:00:00 NR 16.0000 111.400 main 282 272 __________O___ -1 16.0000 111.400 4 2 291
1899273N18127 1899 36 WP MM NOT_NAMED 1899-10-09 06:00:00 NR 16.0171 111.344 main 272 272 __________P___ -1 16.0171 111.344 4 2 286
1899273N18127 1899 36 WP MM NOT_NAMED 1899-10-09 09:00:00 NR 16.0364 111.267 main 272 262 __________P___ -1 16.0364 111.267 4 1 285
1899273N18127 1899 36 WP MM NOT_NAMED 1899-10-09 12:00:00 NR 16.0563 111.195 main 266 256 __________P___ -1 16.0563 111.195 4 1 290
1899273N18127 1899 36 WP MM NOT_NAMED 1899-10-09 15:00:00 NR 16.0862 111.124 main 256 256 __________P___ -1 16.0862 111.124 4 2 297
1899273N18127 1899 36 WP MM NOT_NAMED 1899-10-09 16:00:00 NR 16.1000 111.100 main 256 256 __________O___ -1 16.1000 111.100 4 2 306
1899273N18127 1899 36 WP MM NOT_NAMED 1899-10-09 18:00:00 NR 16.1386 111.050 main 256 246 __________P___ -1 16.1386 111.050 4 2 312
1899273N18127 1899 36 WP MM NOT_NAMED 1899-10-09 21:00:00 NR 16.2091 110.975 main 251 241 __________P___ -1 16.2091 110.975 4 2 317
1899273N18127 1899 36 WP MM NOT_NAMED 1899-10-10 00:00:00 NR 16.2891 110.900 main 246 232 __________P___ -1 16.2891 110.900 4 2 319
1899273N18127 1899 36 WP MM NOT_NAMED 1899-10-10 03:00:00 NR 16.3725 110.825 main 232 232 __________P___ -1 16.3725 110.825 4 2 319
1899273N18127 1899 36 WP MM NOT_NAMED 1899-10-10 04:00:00 NR 16.4000 110.800 main 232 223 __________O___ -1 16.4000 110.800 4 2 322
1899273N18127 1899 36 WP MM NOT_NAMED 1899-10-10 06:00:00 NR 16.4552 110.753 main 223 217 __________P___ -1 16.4552 110.753 4 2 321
1899273N18127 1899 36 WP MM NOT_NAMED 1899-10-10 09:00:00 NR 16.5382 110.682 main 217 202 __________P___ -1 16.5382 110.682 4 2 320
1899273N18127 1899 36 WP MM NOT_NAMED 1899-10-10 12:00:00 NR 16.6158 110.608 main 202 188 __________P___ -1 16.6158 110.608 4 2 314
1899273N18127 1899 36 WP MM NOT_NAMED 1899-10-10 15:00:00 NR 16.6817 110.528 main 188 188 __________P___ -1 16.6817 110.528 4 2 308
1899273N18127 1899 36 WP MM NOT_NAMED 1899-10-10 16:00:00 NR 16.7000 110.500 main 188 183 __________O___ -1 16.7000 110.500 4 2 298
1899273N18127 1899 36 WP MM NOT_NAMED 1899-10-10 18:00:00 NR 16.7307 110.439 main 183 169 __________P___ -1 16.7307 110.439 4 2 292
1899273N18127 1899 36 WP MM NOT_NAMED 1899-10-10 21:00:00 NR 16.7642 110.341 main 169 165 __________P___ -1 16.7642 110.341 4 2 286
1899273N18127 1899 36 WP MM NOT_NAMED 1899-10-11 00:00:00 NR 16.7854 110.239 main 165 162 __________P___ -1 16.7854 110.239 4 2 279
1899273N18127 1899 36 WP MM NOT_NAMED 1899-10-11 03:00:00 NR 16.7975 110.135 main 162 162 __________P___ -1 16.7975 110.135 4 2 276
1899273N18127 1899 36 WP MM NOT_NAMED 1899-10-11 04:00:00 NR 16.8000 110.100 main 162 159 __________O___ -1 16.8000 110.100 4 2 275
1899273N18127 1899 36 WP MM NOT_NAMED 1899-10-11 06:00:00 NR 16.8057 110.036 main 159 158 __________P___ -1 16.8057 110.036 4 2 273
1899273N18127 1899 36 WP MM NOT_NAMED 1899-10-11 09:00:00 NR 16.8079 109.940 main 158 157 __________P___ -1 16.8079 109.940 4 2 270
1899273N18127 1899 36 WP MM NOT_NAMED 1899-10-11 12:00:00 NR 16.8054 109.841 main 157 156 __________P___ -1 16.8054 109.841 4 2 268
1899273N18127 1899 36 WP MM NOT_NAMED 1899-10-11 15:00:00 NR 16.8012 109.737 main 156 156 __________P___ -1 16.8012 109.737 4 2 268
1899273N18127 1899 36 WP MM NOT_NAMED 1899-10-11 16:00:00 NR 16.8000 109.700 main 156 156 __________O___ -1 16.8000 109.700 4 2 272
1899273N18127 1899 36 WP MM NOT_NAMED 1899-10-11 18:00:00 NR 16.8052 109.622 main 156 156 __________P___ -1 16.8052 109.622 4 2 274
1899273N18127 1899 36 WP MM NOT_NAMED 1899-10-11 21:00:00 NR 16.8132 109.500 main 156 147 __________P___ -1 16.8132 109.500 4 2 273
1899273N18127 1899 36 WP MM NOT_NAMED 1899-10-12 00:00:00 NR 16.8158 109.372 main 147 131 __________P___ -1 16.8158 109.372 4 2 268
1899273N18127 1899 36 WP MM NOT_NAMED 1899-10-12 03:00:00 NR 16.8067 109.243 main 131 131 __________P___ -1 16.8067 109.243 4 2 264
1899273N18127 1899 36 WP MM NOT_NAMED 1899-10-12 04:00:00 NR 16.8000 109.200 main 131 123 __________O___ -1 16.8000 109.200 4 2 257
1899273N18127 1899 36 WP MM NOT_NAMED 1899-10-12 06:00:00 NR 16.7781 109.119 main 123 108 __________P___ -1 16.7781 109.119 4 2 251
1899273N18127 1899 36 WP MM NOT_NAMED 1899-10-12 09:00:00 NR 16.7325 108.998 main 108 101 __________P___ -1 16.7325 108.998 4 3 247
1899273N18127 1899 36 WP MM NOT_NAMED 1899-10-12 12:00:00 NR 16.6775 108.875 main 101 78 __________P___ -1 16.6775 108.875 4 3 245
1899273N18127 1899 36 WP MM NOT_NAMED 1899-10-12 15:00:00 NR 16.6191 108.745 main 78 78 __________P___ -1 16.6191 108.745 4 3 245
1899273N18127 1899 36 WP MM NOT_NAMED 1899-10-12 16:00:00 NR 16.6000 108.700 main 78 69 __________O___ -1 16.6000 108.700 4 3 247
1899273N18127 1899 36 WP MM NOT_NAMED 1899-10-12 18:00:00 NR 16.5633 108.607 main 69 54 __________P___ -1 16.5633 108.607 4 3 249
1899273N18127 1899 36 WP MM NOT_NAMED 1899-10-12 21:00:00 NR 16.5116 108.460 main 54 39 __________P___ -1 16.5116 108.460 4 3 251
1899273N18127 1899 36 WP MM NOT_NAMED 1899-10-13 00:00:00 NR 16.4628 108.308 main 39 24 __________P___ -1 16.4628 108.308 4 3 252
1899273N18127 1899 36 WP MM NOT_NAMED 1899-10-13 03:00:00 NR 16.4156 108.152 main 24 22 __________P___ -1 16.4156 108.152 4 3 253
1899273N18127 1899 36 WP MM NOT_NAMED 1899-10-13 04:00:00 NR 16.4000 108.100 main 22 __________O___ -1 16.4000 108.100 4 3 254

デジタル台風データ・検索

IBTrACS Databaseについて

本データベースは、米国NOAAが公開する1842年以降の世界の熱帯低気圧のベストトラックデータアーカイブInternational Best Track Archive for Climate Stewardship (IBTrACS)を、ウェブで閲覧しやすい形式に変換したものです。

最終更新日:2021-10-08